sensor_id;sensor_type;location;lat;lon;timestamp;P1;durP1;ratioP1;P2;durP2;ratioP2
55720;SDS011;41626;53.098;6.168;2022-12-29T00:01:31;3.73;;;3.40;;
55720;SDS011;41626;53.098;6.168;2022-12-29T00:03:57;5.03;;;4.00;;
55720;SDS011;41626;53.098;6.168;2022-12-29T00:06:23;3.40;;;3.10;;
55720;SDS011;41626;53.098;6.168;2022-12-29T00:08:49;3.90;;;3.53;;
55720;SDS011;41626;53.098;6.168;2022-12-29T00:11:15;3.60;;;3.30;;
55720;SDS011;41626;53.098;6.168;2022-12-29T00:13:43;3.70;;;3.35;;
55720;SDS011;41626;53.098;6.168;2022-12-29T00:16:28;4.35;;;3.33;;
55720;SDS011;41626;53.098;6.168;2022-12-29T00:18:54;5.28;;;3.30;;
55720;SDS011;41626;53.098;6.168;2022-12-29T00:21:21;3.70;;;3.15;;
55720;SDS011;41626;53.098;6.168;2022-12-29T00:24:09;4.25;;;3.45;;
55720;SDS011;41626;53.098;6.168;2022-12-29T00:29:50;4.05;;;3.38;;
55720;SDS011;41626;53.098;6.168;2022-12-29T00:32:35;3.90;;;3.55;;
55720;SDS011;41626;53.098;6.168;2022-12-29T00:35:25;4.13;;;3.15;;
55720;SDS011;41626;53.098;6.168;2022-12-29T00:37:54;5.10;;;3.38;;
55720;SDS011;41626;53.098;6.168;2022-12-29T00:40:41;3.60;;;3.30;;
55720;SDS011;41626;53.098;6.168;2022-12-29T00:43:25;4.90;;;3.25;;
55720;SDS011;41626;53.098;6.168;2022-12-29T00:46:09;4.57;;;3.67;;
55720;SDS011;41626;53.098;6.168;2022-12-29T00:48:35;3.72;;;2.95;;
55720;SDS011;41626;53.098;6.168;2022-12-29T00:51:19;3.72;;;3.33;;
55720;SDS011;41626;53.098;6.168;2022-12-29T00:53:45;4.13;;;2.83;;
55720;SDS011;41626;53.098;6.168;2022-12-29T00:56:10;3.00;;;2.70;;
55720;SDS011;41626;53.098;6.168;2022-12-29T00:58:36;4.03;;;2.70;;
55720;SDS011;41626;53.098;6.168;2022-12-29T01:01:02;3.75;;;3.42;;
55720;SDS011;41626;53.098;6.168;2022-12-29T01:03:29;3.33;;;2.97;;
55720;SDS011;41626;53.098;6.168;2022-12-29T01:05:55;5.07;;;3.30;;
55720;SDS011;41626;53.098;6.168;2022-12-29T01:08:21;3.25;;;2.92;;
55720;SDS011;41626;53.098;6.168;2022-12-29T01:10:57;3.80;;;3.17;;
55720;SDS011;41626;53.098;6.168;2022-12-29T01:13:27;3.45;;;2.88;;
55720;SDS011;41626;53.098;6.168;2022-12-29T01:15:53;4.78;;;2.67;;
55720;SDS011;41626;53.098;6.168;2022-12-29T01:18:19;4.82;;;3.55;;
55720;SDS011;41626;53.098;6.168;2022-12-29T01:20:46;3.60;;;2.83;;
55720;SDS011;41626;53.098;6.168;2022-12-29T01:23:11;3.25;;;2.95;;
55720;SDS011;41626;53.098;6.168;2022-12-29T01:25:37;3.50;;;2.65;;
55720;SDS011;41626;53.098;6.168;2022-12-29T01:28:03;3.80;;;2.85;;
55720;SDS011;41626;53.098;6.168;2022-12-29T01:30:29;4.93;;;3.40;;
55720;SDS011;41626;53.098;6.168;2022-12-29T01:32:55;4.60;;;3.70;;
55720;SDS011;41626;53.098;6.168;2022-12-29T01:35:21;6.43;;;3.65;;
55720;SDS011;41626;53.098;6.168;2022-12-29T01:37:46;3.80;;;3.40;;
55720;SDS011;41626;53.098;6.168;2022-12-29T01:40:12;3.70;;;3.30;;
55720;SDS011;41626;53.098;6.168;2022-12-29T01:42:38;4.47;;;3.50;;
55720;SDS011;41626;53.098;6.168;2022-12-29T01:45:10;4.95;;;3.72;;
55720;SDS011;41626;53.098;6.168;2022-12-29T01:50:22;4.65;;;3.92;;
55720;SDS011;41626;53.098;6.168;2022-12-29T01:52:58;5.17;;;4.00;;
55720;SDS011;41626;53.098;6.168;2022-12-29T01:55:27;4.47;;;4.05;;
55720;SDS011;41626;53.098;6.168;2022-12-29T01:57:59;6.13;;;4.63;;
55720;SDS011;41626;53.098;6.168;2022-12-29T02:00:29;4.53;;;4.03;;
55720;SDS011;41626;53.098;6.168;2022-12-29T02:02:55;5.82;;;5.22;;
55720;SDS011;41626;53.098;6.168;2022-12-29T02:05:28;4.93;;;4.00;;
55720;SDS011;41626;53.098;6.168;2022-12-29T02:08:01;4.65;;;4.15;;
55720;SDS011;41626;53.098;6.168;2022-12-29T02:10:28;4.23;;;3.80;;
55720;SDS011;41626;53.098;6.168;2022-12-29T02:12:56;4.68;;;4.00;;
55720;SDS011;41626;53.098;6.168;2022-12-29T02:15:25;3.90;;;3.25;;
55720;SDS011;41626;53.098;6.168;2022-12-29T02:21:05;4.78;;;2.85;;
55720;SDS011;41626;53.098;6.168;2022-12-29T02:41:05;2.50;;;1.77;;
55720;SDS011;41626;53.098;6.168;2022-12-29T02:44:14;3.10;;;2.17;;
55720;SDS011;41626;53.098;6.168;2022-12-29T02:49:33;2.17;;;1.27;;
55720;SDS011;41626;53.098;6.168;2022-12-29T02:52:14;2.58;;;1.20;;
55720;SDS011;41626;53.098;6.168;2022-12-29T02:54:44;2.10;;;1.50;;
55720;SDS011;41626;53.098;6.168;2022-12-29T02:59:52;3.33;;;1.20;;
55720;SDS011;41626;53.098;6.168;2022-12-29T03:08:06;3.60;;;1.48;;
55720;SDS011;41626;53.098;6.168;2022-12-29T03:10:41;4.63;;;1.25;;
55720;SDS011;41626;53.098;6.168;2022-12-29T03:13:28;3.22;;;1.30;;
55720;SDS011;41626;53.098;6.168;2022-12-29T03:16:44;3.17;;;1.08;;
55720;SDS011;41626;53.098;6.168;2022-12-29T03:22:04;3.72;;;1.02;;
55720;SDS011;41626;53.098;6.168;2022-12-29T03:24:57;2.78;;;1.00;;
55720;SDS011;41626;53.098;6.168;2022-12-29T03:27:28;2.38;;;0.90;;
55720;SDS011;41626;53.098;6.168;2022-12-29T03:29:58;1.57;;;0.77;;
55720;SDS011;41626;53.098;6.168;2022-12-29T03:32:28;3.78;;;0.90;;
55720;SDS011;41626;53.098;6.168;2022-12-29T03:34:58;7.15;;;1.73;;
55720;SDS011;41626;53.098;6.168;2022-12-29T03:37:26;2.90;;;1.20;;
55720;SDS011;41626;53.098;6.168;2022-12-29T03:39:56;5.32;;;0.90;;
55720;SDS011;41626;53.098;6.168;2022-12-29T03:42:23;2.53;;;1.27;;
55720;SDS011;41626;53.098;6.168;2022-12-29T03:44:55;7.13;;;1.58;;
55720;SDS011;41626;53.098;6.168;2022-12-29T03:47:22;5.75;;;1.10;;
55720;SDS011;41626;53.098;6.168;2022-12-29T03:49:48;3.78;;;1.10;;
55720;SDS011;41626;53.098;6.168;2022-12-29T03:52:15;3.88;;;1.50;;
55720;SDS011;41626;53.098;6.168;2022-12-29T03:54:41;5.17;;;1.20;;
55720;SDS011;41626;53.098;6.168;2022-12-29T03:57:07;3.23;;;1.00;;
55720;SDS011;41626;53.098;6.168;2022-12-29T03:59:34;4.75;;;1.38;;
55720;SDS011;41626;53.098;6.168;2022-12-29T04:02:00;3.10;;;0.98;;
55720;SDS011;41626;53.098;6.168;2022-12-29T04:04:25;4.63;;;1.08;;
55720;SDS011;41626;53.098;6.168;2022-12-29T04:06:51;6.95;;;1.10;;
55720;SDS011;41626;53.098;6.168;2022-12-29T04:09:17;5.55;;;1.02;;
55720;SDS011;41626;53.098;6.168;2022-12-29T04:11:42;4.73;;;1.53;;
55720;SDS011;41626;53.098;6.168;2022-12-29T04:14:08;6.17;;;1.50;;
55720;SDS011;41626;53.098;6.168;2022-12-29T04:16:34;6.23;;;1.10;;
55720;SDS011;41626;53.098;6.168;2022-12-29T04:19:01;4.88;;;1.33;;
55720;SDS011;41626;53.098;6.168;2022-12-29T04:21:27;3.55;;;1.45;;
55720;SDS011;41626;53.098;6.168;2022-12-29T04:23:52;6.20;;;1.40;;
55720;SDS011;41626;53.098;6.168;2022-12-29T04:26:18;6.90;;;1.38;;
55720;SDS011;41626;53.098;6.168;2022-12-29T04:28:44;4.40;;;1.38;;
55720;SDS011;41626;53.098;6.168;2022-12-29T04:31:10;6.40;;;1.42;;
55720;SDS011;41626;53.098;6.168;2022-12-29T04:33:35;5.47;;;1.38;;
55720;SDS011;41626;53.098;6.168;2022-12-29T04:36:01;8.25;;;1.85;;
55720;SDS011;41626;53.098;6.168;2022-12-29T04:38:27;6.05;;;1.13;;
55720;SDS011;41626;53.098;6.168;2022-12-29T04:40:53;5.22;;;1.30;;
55720;SDS011;41626;53.098;6.168;2022-12-29T04:43:18;6.78;;;1.45;;
55720;SDS011;41626;53.098;6.168;2022-12-29T04:45:47;5.88;;;1.50;;
55720;SDS011;41626;53.098;6.168;2022-12-29T04:48:13;8.63;;;2.10;;
55720;SDS011;41626;53.098;6.168;2022-12-29T04:50:40;7.28;;;1.33;;
55720;SDS011;41626;53.098;6.168;2022-12-29T04:53:06;8.18;;;2.03;;
55720;SDS011;41626;53.098;6.168;2022-12-29T04:55:32;4.53;;;1.50;;
55720;SDS011;41626;53.098;6.168;2022-12-29T04:57:58;8.25;;;1.77;;
55720;SDS011;41626;53.098;6.168;2022-12-29T05:00:24;10.95;;;1.80;;
55720;SDS011;41626;53.098;6.168;2022-12-29T05:02:50;11.15;;;1.80;;
55720;SDS011;41626;53.098;6.168;2022-12-29T05:05:16;10.98;;;2.30;;
55720;SDS011;41626;53.098;6.168;2022-12-29T05:07:41;10.65;;;1.98;;
55720;SDS011;41626;53.098;6.168;2022-12-29T05:10:07;9.10;;;1.80;;
55720;SDS011;41626;53.098;6.168;2022-12-29T05:12:34;9.25;;;2.08;;
55720;SDS011;41626;53.098;6.168;2022-12-29T05:15:01;11.25;;;2.55;;
55720;SDS011;41626;53.098;6.168;2022-12-29T05:17:27;9.98;;;2.28;;
55720;SDS011;41626;53.098;6.168;2022-12-29T05:19:54;11.85;;;2.28;;
55720;SDS011;41626;53.098;6.168;2022-12-29T05:22:19;8.47;;;2.00;;
55720;SDS011;41626;53.098;6.168;2022-12-29T05:24:45;8.13;;;2.33;;
55720;SDS011;41626;53.098;6.168;2022-12-29T05:27:11;10.63;;;2.87;;
55720;SDS011;41626;53.098;6.168;2022-12-29T05:29:37;10.88;;;2.60;;
55720;SDS011;41626;53.098;6.168;2022-12-29T05:32:03;10.25;;;1.80;;
55720;SDS011;41626;53.098;6.168;2022-12-29T05:34:29;12.10;;;3.05;;
55720;SDS011;41626;53.098;6.168;2022-12-29T05:36:54;13.27;;;2.70;;
55720;SDS011;41626;53.098;6.168;2022-12-29T05:39:20;11.95;;;3.00;;
55720;SDS011;41626;53.098;6.168;2022-12-29T05:41:45;13.07;;;3.05;;
55720;SDS011;41626;53.098;6.168;2022-12-29T05:44:11;9.87;;;2.83;;
55720;SDS011;41626;53.098;6.168;2022-12-29T05:46:37;8.90;;;1.90;;
55720;SDS011;41626;53.098;6.168;2022-12-29T05:49:03;10.65;;;2.65;;
55720;SDS011;41626;53.098;6.168;2022-12-29T05:51:29;10.00;;;3.47;;
55720;SDS011;41626;53.098;6.168;2022-12-29T05:53:54;9.75;;;2.65;;
55720;SDS011;41626;53.098;6.168;2022-12-29T05:56:20;9.20;;;3.10;;
55720;SDS011;41626;53.098;6.168;2022-12-29T05:58:46;10.40;;;2.63;;
55720;SDS011;41626;53.098;6.168;2022-12-29T06:01:11;14.38;;;2.70;;
55720;SDS011;41626;53.098;6.168;2022-12-29T06:03:37;14.95;;;3.30;;
55720;SDS011;41626;53.098;6.168;2022-12-29T06:06:03;11.65;;;2.17;;
55720;SDS011;41626;53.098;6.168;2022-12-29T06:08:29;14.70;;;3.33;;
55720;SDS011;41626;53.098;6.168;2022-12-29T06:10:54;13.68;;;2.92;;
55720;SDS011;41626;53.098;6.168;2022-12-29T06:13:20;14.90;;;3.45;;
55720;SDS011;41626;53.098;6.168;2022-12-29T06:15:47;16.75;;;3.88;;
55720;SDS011;41626;53.098;6.168;2022-12-29T06:18:14;14.05;;;3.15;;
55720;SDS011;41626;53.098;6.168;2022-12-29T06:20:40;12.98;;;3.15;;
55720;SDS011;41626;53.098;6.168;2022-12-29T06:23:05;12.02;;;3.30;;
55720;SDS011;41626;53.098;6.168;2022-12-29T06:25:31;17.60;;;2.90;;
55720;SDS011;41626;53.098;6.168;2022-12-29T06:27:58;19.73;;;4.38;;
55720;SDS011;41626;53.098;6.168;2022-12-29T06:30:24;16.30;;;3.35;;
55720;SDS011;41626;53.098;6.168;2022-12-29T06:32:50;16.40;;;4.28;;
55720;SDS011;41626;53.098;6.168;2022-12-29T06:35:16;16.63;;;3.50;;
55720;SDS011;41626;53.098;6.168;2022-12-29T06:37:42;15.80;;;4.10;;
55720;SDS011;41626;53.098;6.168;2022-12-29T06:40:08;13.77;;;3.33;;
55720;SDS011;41626;53.098;6.168;2022-12-29T06:42:35;15.38;;;3.38;;
55720;SDS011;41626;53.098;6.168;2022-12-29T06:45:00;11.93;;;3.15;;
55720;SDS011;41626;53.098;6.168;2022-12-29T06:47:26;14.32;;;3.20;;
55720;SDS011;41626;53.098;6.168;2022-12-29T06:49:52;17.30;;;3.88;;
55720;SDS011;41626;53.098;6.168;2022-12-29T06:52:18;14.93;;;3.45;;
55720;SDS011;41626;53.098;6.168;2022-12-29T06:54:44;16.52;;;3.38;;
55720;SDS011;41626;53.098;6.168;2022-12-29T06:57:09;15.52;;;3.30;;
55720;SDS011;41626;53.098;6.168;2022-12-29T06:59:35;16.17;;;2.85;;
55720;SDS011;41626;53.098;6.168;2022-12-29T07:02:01;20.65;;;4.07;;
55720;SDS011;41626;53.098;6.168;2022-12-29T07:04:27;14.70;;;3.20;;
55720;SDS011;41626;53.098;6.168;2022-12-29T07:06:53;15.90;;;4.65;;
55720;SDS011;41626;53.098;6.168;2022-12-29T07:09:19;17.83;;;4.37;;
55720;SDS011;41626;53.098;6.168;2022-12-29T07:11:45;12.83;;;2.80;;
55720;SDS011;41626;53.098;6.168;2022-12-29T07:14:11;16.90;;;3.83;;
55720;SDS011;41626;53.098;6.168;2022-12-29T07:16:37;13.52;;;2.78;;
55720;SDS011;41626;53.098;6.168;2022-12-29T07:19:03;13.35;;;3.60;;
55720;SDS011;41626;53.098;6.168;2022-12-29T07:21:29;15.80;;;2.70;;
55720;SDS011;41626;53.098;6.168;2022-12-29T07:23:55;14.83;;;3.23;;
55720;SDS011;41626;53.098;6.168;2022-12-29T07:26:26;12.07;;;2.83;;
55720;SDS011;41626;53.098;6.168;2022-12-29T07:28:52;13.17;;;3.77;;
55720;SDS011;41626;53.098;6.168;2022-12-29T07:31:19;11.30;;;2.57;;
55720;SDS011;41626;53.098;6.168;2022-12-29T07:33:47;20.08;;;4.03;;
55720;SDS011;41626;53.098;6.168;2022-12-29T07:36:13;11.05;;;2.35;;
55720;SDS011;41626;53.098;6.168;2022-12-29T07:38:40;10.57;;;2.80;;
55720;SDS011;41626;53.098;6.168;2022-12-29T07:41:06;13.10;;;2.60;;
55720;SDS011;41626;53.098;6.168;2022-12-29T07:43:31;19.17;;;4.87;;
55720;SDS011;41626;53.098;6.168;2022-12-29T07:45:57;17.03;;;4.40;;
55720;SDS011;41626;53.098;6.168;2022-12-29T07:48:22;13.33;;;3.30;;
55720;SDS011;41626;53.098;6.168;2022-12-29T07:50:48;17.02;;;3.72;;
55720;SDS011;41626;53.098;6.168;2022-12-29T07:53:14;13.18;;;3.25;;
55720;SDS011;41626;53.098;6.168;2022-12-29T07:55:40;15.27;;;3.53;;
55720;SDS011;41626;53.098;6.168;2022-12-29T07:58:06;15.45;;;2.38;;
55720;SDS011;41626;53.098;6.168;2022-12-29T08:00:32;11.87;;;3.20;;
55720;SDS011;41626;53.098;6.168;2022-12-29T08:02:58;13.55;;;3.20;;
55720;SDS011;41626;53.098;6.168;2022-12-29T08:05:24;17.60;;;3.83;;
55720;SDS011;41626;53.098;6.168;2022-12-29T08:07:49;14.57;;;3.42;;
55720;SDS011;41626;53.098;6.168;2022-12-29T08:10:16;19.58;;;4.55;;
55720;SDS011;41626;53.098;6.168;2022-12-29T08:12:42;22.02;;;4.28;;
55720;SDS011;41626;53.098;6.168;2022-12-29T08:15:09;19.45;;;5.00;;
55720;SDS011;41626;53.098;6.168;2022-12-29T08:17:36;16.03;;;3.63;;
55720;SDS011;41626;53.098;6.168;2022-12-29T08:20:02;13.82;;;3.85;;
55720;SDS011;41626;53.098;6.168;2022-12-29T08:22:28;18.25;;;3.83;;
55720;SDS011;41626;53.098;6.168;2022-12-29T08:24:54;18.15;;;5.10;;
55720;SDS011;41626;53.098;6.168;2022-12-29T08:27:20;19.60;;;5.43;;
55720;SDS011;41626;53.098;6.168;2022-12-29T08:29:45;15.70;;;3.43;;
55720;SDS011;41626;53.098;6.168;2022-12-29T08:32:11;16.17;;;5.10;;
55720;SDS011;41626;53.098;6.168;2022-12-29T08:34:37;16.75;;;4.07;;
55720;SDS011;41626;53.098;6.168;2022-12-29T08:37:03;22.90;;;5.32;;
55720;SDS011;41626;53.098;6.168;2022-12-29T08:39:29;18.17;;;4.53;;
55720;SDS011;41626;53.098;6.168;2022-12-29T08:41:55;22.47;;;4.90;;
55720;SDS011;41626;53.098;6.168;2022-12-29T08:44:20;17.88;;;4.97;;
55720;SDS011;41626;53.098;6.168;2022-12-29T08:46:46;22.25;;;4.57;;
55720;SDS011;41626;53.098;6.168;2022-12-29T08:49:12;19.38;;;4.22;;
55720;SDS011;41626;53.098;6.168;2022-12-29T08:51:38;27.05;;;6.53;;
55720;SDS011;41626;53.098;6.168;2022-12-29T08:54:03;20.02;;;4.70;;
55720;SDS011;41626;53.098;6.168;2022-12-29T08:56:29;17.42;;;4.63;;
55720;SDS011;41626;53.098;6.168;2022-12-29T08:58:55;25.48;;;5.07;;
55720;SDS011;41626;53.098;6.168;2022-12-29T09:01:21;24.47;;;5.53;;
55720;SDS011;41626;53.098;6.168;2022-12-29T09:03:46;21.10;;;5.37;;
55720;SDS011;41626;53.098;6.168;2022-12-29T09:06:13;27.65;;;5.60;;
55720;SDS011;41626;53.098;6.168;2022-12-29T09:08:40;23.58;;;5.00;;
55720;SDS011;41626;53.098;6.168;2022-12-29T09:11:06;21.57;;;5.20;;
55720;SDS011;41626;53.098;6.168;2022-12-29T09:13:41;26.40;;;5.20;;
55720;SDS011;41626;53.098;6.168;2022-12-29T09:16:07;21.77;;;3.97;;
55720;SDS011;41626;53.098;6.168;2022-12-29T09:18:33;19.20;;;4.53;;
55720;SDS011;41626;53.098;6.168;2022-12-29T09:21:00;16.15;;;4.20;;
55720;SDS011;41626;53.098;6.168;2022-12-29T09:23:27;18.55;;;4.60;;
55720;SDS011;41626;53.098;6.168;2022-12-29T09:25:53;15.30;;;4.00;;
55720;SDS011;41626;53.098;6.168;2022-12-29T09:28:19;20.67;;;4.85;;
55720;SDS011;41626;53.098;6.168;2022-12-29T09:30:46;17.90;;;4.57;;
55720;SDS011;41626;53.098;6.168;2022-12-29T09:33:12;12.43;;;3.40;;
55720;SDS011;41626;53.098;6.168;2022-12-29T09:35:44;16.37;;;4.33;;
55720;SDS011;41626;53.098;6.168;2022-12-29T09:38:15;20.75;;;5.22;;
55720;SDS011;41626;53.098;6.168;2022-12-29T09:40:43;14.98;;;3.40;;
55720;SDS011;41626;53.098;6.168;2022-12-29T09:45:47;13.02;;;3.40;;
55720;SDS011;41626;53.098;6.168;2022-12-29T09:48:22;15.13;;;3.47;;
55720;SDS011;41626;53.098;6.168;2022-12-29T09:50:58;16.92;;;3.03;;
55720;SDS011;41626;53.098;6.168;2022-12-29T09:53:46;15.32;;;4.00;;
55720;SDS011;41626;53.098;6.168;2022-12-29T09:56:20;18.00;;;3.55;;
55720;SDS011;41626;53.098;6.168;2022-12-29T09:58:52;16.65;;;4.28;;
55720;SDS011;41626;53.098;6.168;2022-12-29T10:01:34;17.55;;;4.38;;
55720;SDS011;41626;53.098;6.168;2022-12-29T10:04:06;17.17;;;4.07;;
55720;SDS011;41626;53.098;6.168;2022-12-29T10:09:30;13.77;;;3.85;;
55720;SDS011;41626;53.098;6.168;2022-12-29T10:12:16;20.25;;;4.55;;
55720;SDS011;41626;53.098;6.168;2022-12-29T10:17:39;14.25;;;3.88;;
55720;SDS011;41626;53.098;6.168;2022-12-29T10:20:58;17.95;;;3.50;;
55720;SDS011;41626;53.098;6.168;2022-12-29T10:23:27;15.45;;;3.92;;
55720;SDS011;41626;53.098;6.168;2022-12-29T10:26:01;19.77;;;4.57;;
55720;SDS011;41626;53.098;6.168;2022-12-29T10:28:33;16.20;;;3.42;;
55720;SDS011;41626;53.098;6.168;2022-12-29T10:31:07;15.20;;;3.90;;
55720;SDS011;41626;53.098;6.168;2022-12-29T10:33:39;17.33;;;2.97;;
55720;SDS011;41626;53.098;6.168;2022-12-29T10:36:18;19.17;;;4.35;;
55720;SDS011;41626;53.098;6.168;2022-12-29T10:38:51;21.90;;;4.28;;
55720;SDS011;41626;53.098;6.168;2022-12-29T10:41:46;20.83;;;5.28;;
55720;SDS011;41626;53.098;6.168;2022-12-29T10:44:17;19.60;;;3.95;;
55720;SDS011;41626;53.098;6.168;2022-12-29T10:46:44;24.67;;;5.85;;
55720;SDS011;41626;53.098;6.168;2022-12-29T10:49:26;23.45;;;5.07;;
55720;SDS011;41626;53.098;6.168;2022-12-29T10:51:55;17.60;;;4.75;;
55720;SDS011;41626;53.098;6.168;2022-12-29T10:54:26;19.52;;;4.43;;
55720;SDS011;41626;53.098;6.168;2022-12-29T10:57:05;20.23;;;4.53;;
55720;SDS011;41626;53.098;6.168;2022-12-29T10:59:36;23.50;;;5.00;;
55720;SDS011;41626;53.098;6.168;2022-12-29T11:04:49;23.73;;;5.80;;
55720;SDS011;41626;53.098;6.168;2022-12-29T11:07:30;27.67;;;6.13;;
55720;SDS011;41626;53.098;6.168;2022-12-29T11:10:15;26.83;;;5.82;;
55720;SDS011;41626;53.098;6.168;2022-12-29T11:12:57;22.52;;;4.80;;
55720;SDS011;41626;53.098;6.168;2022-12-29T11:15:25;30.55;;;6.32;;
55720;SDS011;41626;53.098;6.168;2022-12-29T11:17:59;23.35;;;6.22;;
55720;SDS011;41626;53.098;6.168;2022-12-29T11:22:57;20.90;;;4.75;;
55720;SDS011;41626;53.098;6.168;2022-12-29T11:25:23;21.20;;;5.50;;
55720;SDS011;41626;53.098;6.168;2022-12-29T11:27:56;21.65;;;5.18;;
55720;SDS011;41626;53.098;6.168;2022-12-29T11:30:23;25.77;;;5.67;;
55720;SDS011;41626;53.098;6.168;2022-12-29T11:32:51;20.48;;;4.82;;
55720;SDS011;41626;53.098;6.168;2022-12-29T11:35:34;22.25;;;5.40;;
55720;SDS011;41626;53.098;6.168;2022-12-29T11:38:04;22.10;;;5.73;;
55720;SDS011;41626;53.098;6.168;2022-12-29T11:40:30;21.10;;;4.70;;
55720;SDS011;41626;53.098;6.168;2022-12-29T11:43:02;25.33;;;6.22;;
55720;SDS011;41626;53.098;6.168;2022-12-29T11:45:31;28.03;;;5.97;;
55720;SDS011;41626;53.098;6.168;2022-12-29T11:48:06;28.03;;;7.43;;
55720;SDS011;41626;53.098;6.168;2022-12-29T11:50:36;24.07;;;6.13;;
55720;SDS011;41626;53.098;6.168;2022-12-29T11:53:21;21.77;;;4.93;;
55720;SDS011;41626;53.098;6.168;2022-12-29T11:56:08;27.27;;;7.00;;
55720;SDS011;41626;53.098;6.168;2022-12-29T11:58:39;22.80;;;5.22;;
55720;SDS011;41626;53.098;6.168;2022-12-29T12:01:06;24.20;;;6.78;;
55720;SDS011;41626;53.098;6.168;2022-12-29T12:03:36;23.17;;;5.43;;
55720;SDS011;41626;53.098;6.168;2022-12-29T12:06:06;27.00;;;6.32;;
55720;SDS011;41626;53.098;6.168;2022-12-29T12:11:18;20.25;;;5.60;;
55720;SDS011;41626;53.098;6.168;2022-12-29T12:16:43;19.63;;;4.87;;
55720;SDS011;41626;53.098;6.168;2022-12-29T12:27:39;19.20;;;4.45;;
55720;SDS011;41626;53.098;6.168;2022-12-29T12:32:52;16.92;;;3.30;;
55720;SDS011;41626;53.098;6.168;2022-12-29T12:35:41;11.35;;;2.05;;
55720;SDS011;41626;53.098;6.168;2022-12-29T12:41:09;14.98;;;2.75;;
55720;SDS011;41626;53.098;6.168;2022-12-29T12:44:26;13.70;;;3.03;;
55720;SDS011;41626;53.098;6.168;2022-12-29T12:49:43;13.30;;;2.80;;
55720;SDS011;41626;53.098;6.168;2022-12-29T12:53:08;13.52;;;2.45;;
55720;SDS011;41626;53.098;6.168;2022-12-29T12:55:39;12.30;;;3.20;;
55720;SDS011;41626;53.098;6.168;2022-12-29T12:58:21;14.00;;;3.40;;
55720;SDS011;41626;53.098;6.168;2022-12-29T13:06:15;12.52;;;3.47;;
55720;SDS011;41626;53.098;6.168;2022-12-29T13:22:29;15.75;;;3.53;;
55720;SDS011;41626;53.098;6.168;2022-12-29T13:27:41;14.48;;;4.10;;
55720;SDS011;41626;53.098;6.168;2022-12-29T13:30:32;11.73;;;3.28;;
55720;SDS011;41626;53.098;6.168;2022-12-29T13:33:22;13.30;;;2.25;;
55720;SDS011;41626;53.098;6.168;2022-12-29T13:35:54;9.05;;;1.98;;
55720;SDS011;41626;53.098;6.168;2022-12-29T13:38:46;12.95;;;3.13;;
55720;SDS011;41626;53.098;6.168;2022-12-29T13:41:18;10.98;;;2.40;;
55720;SDS011;41626;53.098;6.168;2022-12-29T13:43:50;11.52;;;2.72;;
55720;SDS011;41626;53.098;6.168;2022-12-29T13:46:24;11.77;;;2.90;;
55720;SDS011;41626;53.098;6.168;2022-12-29T13:48:55;10.20;;;2.40;;
55720;SDS011;41626;53.098;6.168;2022-12-29T13:51:26;10.48;;;2.65;;
55720;SDS011;41626;53.098;6.168;2022-12-29T13:54:11;13.43;;;2.83;;
55720;SDS011;41626;53.098;6.168;2022-12-29T13:56:56;12.63;;;3.28;;
55720;SDS011;41626;53.098;6.168;2022-12-29T14:07:45;13.50;;;3.35;;
55720;SDS011;41626;53.098;6.168;2022-12-29T14:13:03;10.30;;;3.30;;
55720;SDS011;41626;53.098;6.168;2022-12-29T14:15:41;11.38;;;2.85;;
55720;SDS011;41626;53.098;6.168;2022-12-29T14:18:22;13.98;;;3.30;;
55720;SDS011;41626;53.098;6.168;2022-12-29T14:20:57;11.88;;;3.45;;
55720;SDS011;41626;53.098;6.168;2022-12-29T14:28:40;11.90;;;3.22;;
55720;SDS011;41626;53.098;6.168;2022-12-29T14:33:39;13.93;;;3.95;;
55720;SDS011;41626;53.098;6.168;2022-12-29T14:36:19;15.97;;;3.50;;
55720;SDS011;41626;53.098;6.168;2022-12-29T14:38:48;14.13;;;3.88;;
55720;SDS011;41626;53.098;6.168;2022-12-29T14:41:24;14.18;;;3.05;;
55720;SDS011;41626;53.098;6.168;2022-12-29T14:43:53;14.40;;;3.58;;
55720;SDS011;41626;53.098;6.168;2022-12-29T14:46:49;12.68;;;2.92;;
55720;SDS011;41626;53.098;6.168;2022-12-29T14:49:21;13.82;;;3.67;;
55720;SDS011;41626;53.098;6.168;2022-12-29T14:51:53;16.27;;;3.73;;
55720;SDS011;41626;53.098;6.168;2022-12-29T14:57:02;14.80;;;3.90;;
55720;SDS011;41626;53.098;6.168;2022-12-29T14:59:31;13.43;;;3.67;;
55720;SDS011;41626;53.098;6.168;2022-12-29T15:02:00;13.33;;;3.00;;
55720;SDS011;41626;53.098;6.168;2022-12-29T15:04:33;15.50;;;4.15;;
55720;SDS011;41626;53.098;6.168;2022-12-29T15:07:00;17.13;;;3.08;;
55720;SDS011;41626;53.098;6.168;2022-12-29T15:09:44;19.50;;;4.75;;
55720;SDS011;41626;53.098;6.168;2022-12-29T15:15:10;17.70;;;3.97;;
55720;SDS011;41626;53.098;6.168;2022-12-29T15:17:42;14.90;;;4.40;;
55720;SDS011;41626;53.098;6.168;2022-12-29T15:20:17;12.48;;;3.42;;
55720;SDS011;41626;53.098;6.168;2022-12-29T15:22:54;15.52;;;3.55;;
55720;SDS011;41626;53.098;6.168;2022-12-29T15:25:27;18.50;;;4.07;;
55720;SDS011;41626;53.098;6.168;2022-12-29T15:27:54;12.32;;;3.92;;
55720;SDS011;41626;53.098;6.168;2022-12-29T15:30:24;15.90;;;3.50;;
55720;SDS011;41626;53.098;6.168;2022-12-29T15:32:50;15.50;;;3.07;;
55720;SDS011;41626;53.098;6.168;2022-12-29T15:38:12;14.13;;;2.70;;
55720;SDS011;41626;53.098;6.168;2022-12-29T15:40:43;18.15;;;3.85;;
55720;SDS011;41626;53.098;6.168;2022-12-29T15:45:47;14.38;;;2.55;;
55720;SDS011;41626;53.098;6.168;2022-12-29T15:48:16;19.80;;;3.72;;
55720;SDS011;41626;53.098;6.168;2022-12-29T15:50:44;15.45;;;3.80;;
55720;SDS011;41626;53.098;6.168;2022-12-29T15:53:11;20.02;;;4.45;;
55720;SDS011;41626;53.098;6.168;2022-12-29T15:55:43;16.43;;;3.70;;
55720;SDS011;41626;53.098;6.168;2022-12-29T15:58:21;14.88;;;2.88;;
55720;SDS011;41626;53.098;6.168;2022-12-29T16:00:53;19.17;;;3.75;;
55720;SDS011;41626;53.098;6.168;2022-12-29T16:03:27;14.90;;;3.97;;
55720;SDS011;41626;53.098;6.168;2022-12-29T16:06:06;12.38;;;2.85;;
55720;SDS011;41626;53.098;6.168;2022-12-29T16:08:54;7.50;;;2.20;;
55720;SDS011;41626;53.098;6.168;2022-12-29T16:11:46;8.57;;;2.40;;
55720;SDS011;41626;53.098;6.168;2022-12-29T16:14:19;8.80;;;1.85;;
55720;SDS011;41626;53.098;6.168;2022-12-29T16:16:50;7.50;;;1.60;;
55720;SDS011;41626;53.098;6.168;2022-12-29T16:19:21;6.67;;;1.30;;
55720;SDS011;41626;53.098;6.168;2022-12-29T16:21:52;6.35;;;2.22;;
55720;SDS011;41626;53.098;6.168;2022-12-29T16:24:19;6.82;;;1.45;;
55720;SDS011;41626;53.098;6.168;2022-12-29T16:26:56;6.90;;;1.48;;
55720;SDS011;41626;53.098;6.168;2022-12-29T16:29:27;7.47;;;1.42;;
55720;SDS011;41626;53.098;6.168;2022-12-29T16:31:56;6.93;;;1.38;;
55720;SDS011;41626;53.098;6.168;2022-12-29T16:39:53;6.82;;;1.65;;
55720;SDS011;41626;53.098;6.168;2022-12-29T16:50:30;19.98;;;11.13;;
55720;SDS011;41626;53.098;6.168;2022-12-29T16:52:57;17.52;;;6.05;;
55720;SDS011;41626;53.098;6.168;2022-12-29T16:55:23;14.63;;;3.22;;
55720;SDS011;41626;53.098;6.168;2022-12-29T16:57:50;17.38;;;3.30;;
55720;SDS011;41626;53.098;6.168;2022-12-29T17:00:19;15.05;;;2.92;;
55720;SDS011;41626;53.098;6.168;2022-12-29T17:02:47;24.55;;;4.10;;
55720;SDS011;41626;53.098;6.168;2022-12-29T17:05:15;14.25;;;2.92;;
55720;SDS011;41626;53.098;6.168;2022-12-29T17:07:41;18.13;;;4.10;;
55720;SDS011;41626;53.098;6.168;2022-12-29T17:10:08;14.15;;;3.20;;
55720;SDS011;41626;53.098;6.168;2022-12-29T17:12:34;14.68;;;3.00;;
55720;SDS011;41626;53.098;6.168;2022-12-29T17:15:02;19.58;;;4.15;;
55720;SDS011;41626;53.098;6.168;2022-12-29T17:20:14;14.02;;;3.13;;
55720;SDS011;41626;53.098;6.168;2022-12-29T17:22:48;15.57;;;3.63;;